createdAt,value
2019-05-07T00:01:56.317Z,9.39
2019-05-07T00:04:25.400Z,9.54
2019-05-07T00:06:57.788Z,9.28
2019-05-07T00:09:26.906Z,9.19
2019-05-07T00:11:55.966Z,8.99
2019-05-07T00:14:24.998Z,9.05
2019-05-07T00:16:54.096Z,9.79
2019-05-07T00:19:24.996Z,9.83
2019-05-07T00:21:54.199Z,10.00
2019-05-07T00:24:23.273Z,10.06
2019-05-07T00:26:53.247Z,10.41
2019-05-07T00:29:22.597Z,9.75
2019-05-07T00:31:53.617Z,9.65
2019-05-07T00:34:29.862Z,9.75
2019-05-07T00:37:13.105Z,10.17
2019-05-07T00:40:16.931Z,9.93
2019-05-07T00:43:05.179Z,10.08
2019-05-07T00:45:46.146Z,10.04
2019-05-07T00:48:19.655Z,10.25
2019-05-07T00:50:52.693Z,9.56
2019-05-07T00:53:24.466Z,8.81
2019-05-07T00:55:56.220Z,8.87
2019-05-07T00:58:27.484Z,9.15
2019-05-07T01:00:58.154Z,8.98
2019-05-07T01:03:27.435Z,8.62
2019-05-07T01:05:56.544Z,8.84
2019-05-07T01:08:25.626Z,9.14
2019-05-07T01:10:57.756Z,8.76
2019-05-07T01:13:32.325Z,8.46
2019-05-07T01:16:05.981Z,8.75
2019-05-07T01:18:36.107Z,8.67
2019-05-07T01:21:07.782Z,8.51
2019-05-07T01:23:36.860Z,8.82
2019-05-07T01:26:07.303Z,8.59
2019-05-07T01:28:54.510Z,8.64
2019-05-07T01:31:24.928Z,8.70
2019-05-07T01:34:02.566Z,8.35
2019-05-07T01:36:34.321Z,8.40
2019-05-07T01:39:03.753Z,8.11
2019-05-07T01:41:32.863Z,8.27
2019-05-07T01:44:06.340Z,8.54
2019-05-07T01:46:35.380Z,8.67
2019-05-07T01:49:04.479Z,8.41
2019-05-07T01:51:34.638Z,8.16
2019-05-07T01:54:04.908Z,7.86
2019-05-07T01:56:42.613Z,7.87
2019-05-07T01:59:13.625Z,7.72
2019-05-07T02:01:43.158Z,7.81
2019-05-07T02:04:29.939Z,8.08
2019-05-07T02:07:17.078Z,7.81
2019-05-07T02:09:55.203Z,7.78
2019-05-07T02:12:31.930Z,7.54
2019-05-07T02:15:02.703Z,7.30
2019-05-07T02:17:32.305Z,7.70
2019-05-07T02:20:05.625Z,7.72
2019-05-07T02:22:37.189Z,7.77
2019-05-07T02:25:09.989Z,7.66
2019-05-07T02:27:42.293Z,7.78
2019-05-07T02:30:14.715Z,7.87
2019-05-07T02:32:43.328Z,7.67
2019-05-07T02:35:13.658Z,7.67
2019-05-07T02:37:56.195Z,7.78
2019-05-07T02:40:48.719Z,7.82
2019-05-07T02:43:17.768Z,7.53
2019-05-07T02:46:20.645Z,7.50
2019-05-07T02:48:49.006Z,6.99
2019-05-07T02:51:26.635Z,7.13
2019-05-07T02:54:08.189Z,7.09
2019-05-07T02:56:37.227Z,7.12
2019-05-07T02:59:06.484Z,6.94
2019-05-07T03:01:37.309Z,7.08
2019-05-07T03:04:07.542Z,6.96
2019-05-07T03:06:43.984Z,7.13
2019-05-07T03:09:14.488Z,7.16
2019-05-07T03:11:43.801Z,7.38
2019-05-07T03:14:16.297Z,7.17
2019-05-07T03:16:49.637Z,7.08
2019-05-07T03:19:19.970Z,7.04
2019-05-07T03:21:56.159Z,7.18
2019-05-07T03:24:56.696Z,7.09
2019-05-07T03:27:44.676Z,7.32
2019-05-07T03:30:45.028Z,7.03
2019-05-07T03:33:29.122Z,6.46
2019-05-07T03:35:58.973Z,6.37
2019-05-07T03:38:28.042Z,6.36
2019-05-07T03:40:57.109Z,6.47
2019-05-07T03:43:27.234Z,6.62
2019-05-07T03:46:17.000Z,6.84
2019-05-07T03:48:53.149Z,6.76
2019-05-07T03:51:23.722Z,6.68
2019-05-07T03:53:54.763Z,6.80
2019-05-07T03:56:27.774Z,7.06
2019-05-07T03:58:56.815Z,6.79
2019-05-07T04:01:25.888Z,6.54
2019-05-07T04:03:56.148Z,6.33
2019-05-07T04:06:29.646Z,6.47
2019-05-07T04:08:58.771Z,6.41
2019-05-07T04:11:27.852Z,6.40
2019-05-07T04:13:57.736Z,6.22
2019-05-07T04:16:27.275Z,6.05
2019-05-07T04:18:58.053Z,5.98
2019-05-07T04:21:27.136Z,5.95
2019-05-07T04:24:13.730Z,6.23
2019-05-07T04:26:45.981Z,5.91
2019-05-07T04:29:22.886Z,6.11
2019-05-07T04:31:53.243Z,4.09
2019-05-07T04:34:39.884Z,6.05
2019-05-07T04:37:08.933Z,6.58
2019-05-07T04:39:42.868Z,6.28
2019-05-07T04:42:13.386Z,6.31
2019-05-07T04:44:43.690Z,6.55
2019-05-07T04:47:13.399Z,6.74
2019-05-07T04:49:43.888Z,6.93
2019-05-07T04:52:19.048Z,7.19
2019-05-07T04:54:48.501Z,7.05
2019-05-07T04:57:26.977Z,6.96
2019-05-07T04:59:58.962Z,7.13
2019-05-07T05:02:47.506Z,7.48
2019-05-07T05:05:23.661Z,7.49
2019-05-07T05:07:56.527Z,7.38
2019-05-07T05:10:27.384Z,7.19
2019-05-07T05:12:56.461Z,7.49
2019-05-07T05:15:25.509Z,8.05
2019-05-07T05:17:54.562Z,8.36
2019-05-07T05:20:33.719Z,8.49
2019-05-07T05:23:33.994Z,8.45
2019-05-07T05:26:04.636Z,8.75
2019-05-07T05:28:33.755Z,9.32
2019-05-07T05:31:04.763Z,9.31
2019-05-07T05:33:36.757Z,8.85
2019-05-07T05:36:05.832Z,8.80
2019-05-07T05:38:35.244Z,8.81
2019-05-07T05:41:04.750Z,9.25
2019-05-07T05:43:46.891Z,9.08
2019-05-07T05:46:16.177Z,10.00
2019-05-07T05:48:48.293Z,9.89
2019-05-07T05:51:26.791Z,9.59
2019-05-07T05:54:14.791Z,9.74
2019-05-07T05:56:54.485Z,9.60
2019-05-07T05:59:55.589Z,9.92
2019-05-07T06:02:34.299Z,10.16
2019-05-07T06:05:22.349Z,10.34
2019-05-07T06:07:59.116Z,11.13
2019-05-07T06:10:53.722Z,10.80
2019-05-07T06:13:34.937Z,10.09
2019-05-07T06:16:13.194Z,10.46
2019-05-07T06:18:57.908Z,10.58
2019-05-07T06:21:47.903Z,10.78
2019-05-07T06:24:22.515Z,11.37
2019-05-07T06:27:09.236Z,11.48
2019-05-07T06:29:39.354Z,11.68
2019-05-07T06:32:12.134Z,11.66
2019-05-07T06:34:44.651Z,11.76
2019-05-07T06:37:12.964Z,11.48
2019-05-07T06:40:13.284Z,11.89
2019-05-07T06:42:55.337Z,11.68
2019-05-07T06:45:35.311Z,11.64
2019-05-07T06:48:03.572Z,11.59
2019-05-07T06:50:35.718Z,12.04
2019-05-07T06:53:07.614Z,12.24
2019-05-07T06:55:49.017Z,12.00
2019-05-07T06:58:18.455Z,11.89
2019-05-07T07:01:12.104Z,11.79
2019-05-07T07:04:02.619Z,11.59
2019-05-07T07:06:52.360Z,11.58
2019-05-07T07:09:27.621Z,11.65
2019-05-07T07:12:02.024Z,11.82
2019-05-07T07:14:33.178Z,12.25
2019-05-07T07:17:03.695Z,12.66
2019-05-07T07:19:35.991Z,12.31
2019-05-07T07:22:03.990Z,11.92
2019-05-07T07:24:33.111Z,12.34
2019-05-07T07:27:02.474Z,13.34
2019-05-07T07:29:36.332Z,14.10
2019-05-07T07:32:07.878Z,13.33
2019-05-07T07:34:43.145Z,13.33
2019-05-07T07:37:22.933Z,13.35
2019-05-07T07:40:09.511Z,13.98
2019-05-07T07:42:39.420Z,13.29
2019-05-07T07:45:16.950Z,14.18
2019-05-07T07:47:46.508Z,13.57
2019-05-07T07:50:17.182Z,13.97
2019-05-07T07:52:46.363Z,14.66
2019-05-07T07:55:17.483Z,13.36
2019-05-07T07:57:52.440Z,14.15
2019-05-07T08:00:52.534Z,14.48
2019-05-07T08:03:26.134Z,14.61
2019-05-07T08:05:54.623Z,13.81
2019-05-07T08:08:26.668Z,14.55
2019-05-07T08:10:55.851Z,13.99
2019-05-07T08:13:28.693Z,14.38
2019-05-07T08:16:02.909Z,14.30
2019-05-07T08:18:36.079Z,14.11
2019-05-07T08:21:07.998Z,14.92
2019-05-07T08:23:37.219Z,15.11
2019-05-07T08:26:06.298Z,14.62
2019-05-07T08:28:36.104Z,14.48
2019-05-07T08:31:27.323Z,15.45
2019-05-07T08:34:03.083Z,15.05
2019-05-07T08:36:33.199Z,15.23
2019-05-07T08:39:05.826Z,15.81
2019-05-07T08:41:35.875Z,15.05
2019-05-07T08:44:15.476Z,15.70
2019-05-07T08:47:02.797Z,15.95
2019-05-07T08:49:39.583Z,15.96
2019-05-07T08:52:04.820Z,13.96
2019-05-07T08:54:38.221Z,12.46
2019-05-07T08:57:08.995Z,14.13
2019-05-07T08:59:42.268Z,14.45
2019-05-07T09:02:13.024Z,14.89
2019-05-07T09:04:42.122Z,14.97
2019-05-07T09:07:13.031Z,13.97
2019-05-07T09:09:42.847Z,13.49
2019-05-07T09:12:12.652Z,14.68
2019-05-07T09:14:42.530Z,15.27
2019-05-07T09:17:14.491Z,14.69
2019-05-07T09:19:51.530Z,14.79
2019-05-07T09:22:18.493Z,14.73
2019-05-07T09:24:59.696Z,14.88
2019-05-07T09:27:48.896Z,15.00
2019-05-07T09:30:38.437Z,14.73
2019-05-07T09:33:16.908Z,14.20
2019-05-07T09:35:48.325Z,15.02
2019-05-07T09:38:25.342Z,15.03
2019-05-07T09:40:57.070Z,13.72
2019-05-07T09:43:26.298Z,14.65
2019-05-07T09:45:55.336Z,15.41
2019-05-07T09:48:26.107Z,14.12
2019-05-07T09:51:02.326Z,14.43
2019-05-07T09:53:32.884Z,14.57
2019-05-07T09:56:03.810Z,14.20
2019-05-07T09:58:39.936Z,13.29
2019-05-07T10:01:14.011Z,14.65
2019-05-07T10:03:43.607Z,13.96
2019-05-07T10:06:12.940Z,14.36
2019-05-07T10:08:47.456Z,15.51
2019-05-07T10:11:24.209Z,15.43
2019-05-07T10:14:01.491Z,15.22
2019-05-07T10:16:55.774Z,14.02
2019-05-07T10:19:25.113Z,14.47
2019-05-07T10:21:56.636Z,15.34
2019-05-07T10:24:26.110Z,14.90
2019-05-07T10:26:58.336Z,15.26
2019-05-07T10:29:32.254Z,14.72
2019-05-07T10:32:03.075Z,14.62
2019-05-07T10:34:32.175Z,14.44
2019-05-07T10:37:02.696Z,14.06
2019-05-07T10:39:32.586Z,14.67
2019-05-07T10:42:03.598Z,15.13
2019-05-07T10:44:43.177Z,15.22
2019-05-07T10:47:49.254Z,14.99
2019-05-07T10:50:35.557Z,15.34
2019-05-07T10:52:58.987Z,15.43
2019-05-07T10:55:32.739Z,15.72
2019-05-07T10:58:09.462Z,15.75
2019-05-07T11:00:39.120Z,15.77
2019-05-07T11:03:10.084Z,16.45
2019-05-07T11:05:39.258Z,16.51
2019-05-07T11:08:10.208Z,16.68
2019-05-07T11:10:39.386Z,15.68
2019-05-07T11:13:09.857Z,15.44
2019-05-07T11:15:39.755Z,15.51
2019-05-07T11:18:17.355Z,16.61
2019-05-07T11:20:50.328Z,15.13
2019-05-07T11:23:17.819Z,17.14
2019-05-07T11:25:52.632Z,15.23
2019-05-07T11:28:23.673Z,16.24
2019-05-07T11:30:58.604Z,16.08
2019-05-07T11:33:37.412Z,15.40
2019-05-07T11:36:16.993Z,16.32
2019-05-07T11:38:46.106Z,15.38
2019-05-07T11:41:15.226Z,16.90
2019-05-07T11:44:13.981Z,17.17
2019-05-07T11:47:12.317Z,17.91
2019-05-07T11:50:00.177Z,16.73
2019-05-07T11:52:38.463Z,17.18
2019-05-07T11:55:13.706Z,17.32
2019-05-07T11:57:45.770Z,17.76
2019-05-07T12:00:35.683Z,17.70
2019-05-07T12:03:05.022Z,18.31
2019-05-07T12:05:37.746Z,18.71
2019-05-07T12:08:37.566Z,18.87
2019-05-07T12:11:02.354Z,16.77
2019-05-07T12:13:32.286Z,17.19
2019-05-07T12:16:03.038Z,17.10
2019-05-07T12:18:36.229Z,16.09
2019-05-07T12:21:18.305Z,16.64
2019-05-07T12:23:38.216Z,16.36
2019-05-07T12:26:07.740Z,16.60
2019-05-07T12:28:37.308Z,17.63
2019-05-07T12:31:41.678Z,17.46
2019-05-07T12:34:17.733Z,18.73
2019-05-07T12:36:52.443Z,17.13
2019-05-07T12:39:24.767Z,15.21
2019-05-07T12:41:59.510Z,15.97
2019-05-07T12:44:32.082Z,16.26
2019-05-07T12:47:02.323Z,17.60
2019-05-07T12:49:32.561Z,18.32
2019-05-07T12:52:09.640Z,17.99
2019-05-07T12:54:57.782Z,17.91
2019-05-07T12:57:30.068Z,18.54
2019-05-07T13:00:18.133Z,17.99
2019-05-07T13:03:06.539Z,18.73
2019-05-07T13:05:37.250Z,17.36
2019-05-07T13:08:12.340Z,18.87
2019-05-07T13:10:37.417Z,17.42
2019-05-07T13:13:06.508Z,18.09
2019-05-07T13:15:35.911Z,17.85
2019-05-07T13:18:05.414Z,16.66
2019-05-07T13:20:37.485Z,15.86
2019-05-07T13:23:06.569Z,17.50
2019-05-07T13:25:37.126Z,18.75
2019-05-07T13:28:07.121Z,18.81
2019-05-07T13:30:44.276Z,18.66
2019-05-07T13:33:14.084Z,18.26
2019-05-07T13:35:44.404Z,18.39
2019-05-07T13:38:32.326Z,18.97
2019-05-07T13:41:24.187Z,18.95
2019-05-07T13:44:18.442Z,18.58
2019-05-07T13:46:52.875Z,20.05
2019-05-07T13:49:22.052Z,20.68
2019-05-07T13:52:03.397Z,20.13
2019-05-07T13:54:28.484Z,20.04
2019-05-07T13:56:57.635Z,20.63
2019-05-07T13:59:40.012Z,19.99
2019-05-07T14:02:15.659Z,18.33
2019-05-07T14:04:44.805Z,18.77
2019-05-07T14:07:14.017Z,19.86
2019-05-07T14:12:27.407Z,17.55
2019-05-07T14:15:02.022Z,17.34
2019-05-07T14:17:32.075Z,17.77
2019-05-07T14:20:04.965Z,17.20
2019-05-07T14:22:32.675Z,17.95
2019-05-07T14:25:09.246Z,19.22
2019-05-07T14:27:38.429Z,20.13
2019-05-07T14:30:08.198Z,20.92
2019-05-07T14:32:46.150Z,18.35
2019-05-07T14:35:26.881Z,19.98
2019-05-07T14:38:03.324Z,19.67
2019-05-07T14:40:35.543Z,19.49
2019-05-07T14:43:09.747Z,20.14
2019-05-07T14:45:42.086Z,18.58
2019-05-07T14:48:12.191Z,19.21
2019-05-07T14:50:44.935Z,18.74
2019-05-07T14:53:14.875Z,19.30
2019-05-07T14:55:52.055Z,19.64
2019-05-07T14:58:21.116Z,20.58
2019-05-07T15:00:51.873Z,21.53
2019-05-07T15:03:23.952Z,20.57
2019-05-07T15:06:02.470Z,20.15
2019-05-07T15:08:35.270Z,20.23
2019-05-07T15:11:08.226Z,18.35
2019-05-07T15:13:37.428Z,19.46
2019-05-07T15:16:06.863Z,18.17
2019-05-07T15:19:04.146Z,17.07
2019-05-07T15:21:37.149Z,19.46
2019-05-07T15:24:06.201Z,19.91
2019-05-07T15:26:38.790Z,18.43
2019-05-07T15:29:14.296Z,19.80
2019-05-07T15:32:17.354Z,19.76
2019-05-07T15:34:46.419Z,20.04
2019-05-07T15:37:17.010Z,20.09
2019-05-07T15:39:50.340Z,19.15
2019-05-07T15:42:17.163Z,19.50
2019-05-07T15:44:48.127Z,19.64
2019-05-07T15:47:22.671Z,19.77
2019-05-07T15:49:55.352Z,19.58
2019-05-07T15:52:58.115Z,20.02
2019-05-07T15:55:22.493Z,19.46
2019-05-07T15:57:52.162Z,19.20
2019-05-07T16:00:23.530Z,19.43
2019-05-07T16:03:02.060Z,19.07
2019-05-07T16:05:31.735Z,19.11
2019-05-07T16:08:12.362Z,19.02
2019-05-07T16:10:42.606Z,18.82
2019-05-07T16:13:13.992Z,18.42
2019-05-07T16:15:44.843Z,18.72
2019-05-07T16:18:17.807Z,18.85
2019-05-07T16:20:46.919Z,18.20
2019-05-07T16:23:19.012Z,19.15
2019-05-07T16:25:52.784Z,19.29
2019-05-07T16:28:22.029Z,19.18
2019-05-07T16:30:55.128Z,19.04
2019-05-07T16:33:26.539Z,19.23
2019-05-07T16:35:55.668Z,19.16
2019-05-07T16:38:24.800Z,19.25
2019-05-07T16:40:54.981Z,19.23
2019-05-07T16:43:31.900Z,19.08
2019-05-07T16:46:02.454Z,18.41
2019-05-07T16:48:38.298Z,18.15
2019-05-07T16:51:07.379Z,17.33
2019-05-07T16:53:42.248Z,17.35
2019-05-07T16:56:12.415Z,17.56
2019-05-07T16:58:52.286Z,17.45
2019-05-07T17:01:22.265Z,16.96
2019-05-07T17:03:55.957Z,17.01
2019-05-07T17:06:31.907Z,17.21
2019-05-07T17:09:08.879Z,16.89
2019-05-07T17:11:39.437Z,16.81
2019-05-07T17:14:10.278Z,16.69
2019-05-07T17:16:42.376Z,16.71
2019-05-07T17:19:15.499Z,16.80
2019-05-07T17:21:44.683Z,16.77
2019-05-07T17:24:13.773Z,8.41
2019-05-07T17:26:42.846Z,16.35
2019-05-07T17:29:12.159Z,16.44
2019-05-07T17:31:42.405Z,16.41
2019-05-07T17:34:16.281Z,16.32
2019-05-07T17:36:49.125Z,15.40
2019-05-07T17:39:22.527Z,16.23
2019-05-07T17:41:53.073Z,16.31
2019-05-07T17:44:23.247Z,16.09
2019-05-07T17:46:53.518Z,16.17
2019-05-07T17:49:22.600Z,16.11
2019-05-07T17:51:52.574Z,16.11
2019-05-07T17:54:22.529Z,16.15
2019-05-07T17:56:52.686Z,16.04
2019-05-07T17:59:23.298Z,16.06
2019-05-07T18:02:29.575Z,16.23
2019-05-07T18:05:06.201Z,16.07
2019-05-07T18:07:36.922Z,15.98
2019-05-07T18:10:06.569Z,15.94
2019-05-07T18:12:35.643Z,15.90
2019-05-07T18:15:09.442Z,15.97
2019-05-07T18:17:45.973Z,15.91
2019-05-07T18:20:18.140Z,15.69
2019-05-07T18:22:47.232Z,15.47
2019-05-07T18:25:17.439Z,15.40
2019-05-07T18:27:46.527Z,15.37
2019-05-07T18:30:16.816Z,15.33
2019-05-07T18:32:51.984Z,15.39
2019-05-07T18:35:27.837Z,15.33
2019-05-07T18:38:04.433Z,15.22
2019-05-07T18:40:33.562Z,15.17
2019-05-07T18:43:03.124Z,15.15
2019-05-07T18:45:32.462Z,15.24
2019-05-07T18:48:02.403Z,15.28
2019-05-07T18:50:33.839Z,15.35
2019-05-07T18:53:02.978Z,15.37
2019-05-07T18:55:33.097Z,15.37
2019-05-07T18:58:02.897Z,15.32
2019-05-07T19:00:38.559Z,15.26
2019-05-07T19:03:10.844Z,14.97
2019-05-07T19:05:42.406Z,15.01
2019-05-07T19:08:13.545Z,14.98
2019-05-07T19:10:44.135Z,15.11
2019-05-07T19:13:17.706Z,15.19
2019-05-07T19:15:48.263Z,15.23
2019-05-07T19:18:22.606Z,15.18
2019-05-07T19:20:52.990Z,15.21
2019-05-07T19:23:22.456Z,15.18
2019-05-07T19:25:53.045Z,15.05
2019-05-07T19:28:26.761Z,15.00
2019-05-07T19:30:55.838Z,14.99
2019-05-07T19:33:27.150Z,14.93
2019-05-07T19:35:59.533Z,15.03
2019-05-07T19:38:32.345Z,15.01
2019-05-07T19:41:02.897Z,15.01
2019-05-07T19:43:36.340Z,15.13
2019-05-07T19:46:05.681Z,15.12
2019-05-07T19:48:35.308Z,15.26
2019-05-07T19:51:04.444Z,15.28
2019-05-07T19:53:33.526Z,15.33
2019-05-07T19:56:05.800Z,15.35
2019-05-07T19:58:36.068Z,15.27
2019-05-07T20:01:06.882Z,15.13
2019-05-07T20:03:36.031Z,14.68
2019-05-07T20:06:09.660Z,15.04
2019-05-07T20:08:38.766Z,14.95
2019-05-07T20:11:31.996Z,14.79
2019-05-07T20:14:02.076Z,14.60
2019-05-07T20:16:33.041Z,14.43
2019-05-07T20:19:02.441Z,14.31
2019-05-07T20:21:32.704Z,14.37
2019-05-07T20:24:06.950Z,14.48
2019-05-07T20:26:43.817Z,14.46
2019-05-07T20:29:13.376Z,14.42
2019-05-07T20:31:42.567Z,14.07
2019-05-07T20:34:15.463Z,13.87
2019-05-07T20:36:44.627Z,13.78
2019-05-07T20:39:14.018Z,13.84
2019-05-07T20:41:44.404Z,13.88
2019-05-07T20:44:13.842Z,13.99
2019-05-07T20:46:42.909Z,14.01
2019-05-07T20:49:13.440Z,14.05
2019-05-07T20:51:45.023Z,14.15
2019-05-07T20:54:48.136Z,13.95
2019-05-07T20:57:23.186Z,13.90
2019-05-07T20:59:53.744Z,14.03
2019-05-07T21:02:23.298Z,14.06
2019-05-07T21:04:52.368Z,14.25
2019-05-07T21:07:22.415Z,14.47
2019-05-07T21:09:53.029Z,14.65
2019-05-07T21:12:25.338Z,14.52
2019-05-07T21:14:57.582Z,14.33
2019-05-07T21:17:32.200Z,14.42
2019-05-07T21:20:04.576Z,14.33
2019-05-07T21:22:39.634Z,14.22
2019-05-07T21:25:08.778Z,14.13
2019-05-07T21:27:37.834Z,13.97
2019-05-07T21:30:07.348Z,13.72
2019-05-07T21:32:39.291Z,13.57
2019-05-07T21:35:11.043Z,13.49
2019-05-07T21:37:41.795Z,13.65
2019-05-07T21:40:13.034Z,13.65
2019-05-07T21:42:42.664Z,13.54
2019-05-07T21:45:15.676Z,13.61
2019-05-07T21:47:44.754Z,13.78
2019-05-07T21:50:14.646Z,13.89
2019-05-07T21:52:46.524Z,13.92
2019-05-07T21:55:28.601Z,14.12
2019-05-07T21:58:25.447Z,14.28
2019-05-07T22:01:23.540Z,13.97
2019-05-07T22:03:56.996Z,13.82
2019-05-07T22:06:26.060Z,13.83
2019-05-07T22:08:55.248Z,13.85
2019-05-07T22:11:34.871Z,14.03
2019-05-07T22:14:06.730Z,14.17
2019-05-07T22:16:38.712Z,14.19
2019-05-07T22:19:12.849Z,14.21
2019-05-07T22:21:43.431Z,14.21
2019-05-07T22:24:17.778Z,14.16
2019-05-07T22:26:48.533Z,13.94
2019-05-07T22:29:17.540Z,13.64
2019-05-07T22:32:04.401Z,13.57
2019-05-07T22:34:55.652Z,13.23
2019-05-07T22:37:24.697Z,13.54
2019-05-07T22:39:56.971Z,13.32
2019-05-07T22:42:32.684Z,12.64
2019-05-07T22:45:03.855Z,12.41
2019-05-07T22:47:34.145Z,11.85
2019-05-07T22:50:03.973Z,11.61
2019-05-07T22:52:34.147Z,11.85
2019-05-07T22:55:04.621Z,11.36
2019-05-07T22:57:55.768Z,11.13
2019-05-07T23:00:47.550Z,11.50
2019-05-07T23:03:22.896Z,10.84
2019-05-07T23:05:56.695Z,10.86
2019-05-07T23:08:42.362Z,11.16
2019-05-07T23:11:12.257Z,10.72
2019-05-07T23:13:42.971Z,10.69
2019-05-07T23:16:13.724Z,10.63
2019-05-07T23:18:43.163Z,10.79
2019-05-07T23:21:12.378Z,10.59
2019-05-07T23:23:44.158Z,10.73
2019-05-07T23:26:14.873Z,10.80
2019-05-07T23:28:45.243Z,10.62
2019-05-07T23:31:14.319Z,10.24
2019-05-07T23:33:43.361Z,10.33
2019-05-07T23:36:16.994Z,10.30
2019-05-07T23:38:52.091Z,10.07
2019-05-07T23:41:36.991Z,10.28
2019-05-07T23:44:23.238Z,10.43
2019-05-07T23:46:52.319Z,10.20
2019-05-07T23:49:23.216Z,9.87
2019-05-07T23:51:53.094Z,9.82
2019-05-07T23:54:23.132Z,9.69
2019-05-07T23:57:05.863Z,9.82
2019-05-07T23:59:26.561Z,9.76
